KMAF/MAF METAR and TAF weather

Enter ICAO airport designator
Station Type Date Time Source
KMAF METAR 2022/08/12 14:53 UTC NOAA

KMAF 121453Z 07005KT 7SM CLR 27/12 A3016 RMK AO2 SLP162 T02720122 51008


Station Type Date Time Source
KMAF Decoded METAR 2022/08/12 14:53 UTC NOAA

MIDLAND INTERNATIONAL AIRPORT , TX, United States (KMAF) 31-56N 102-12W 872M
Aug 12, 2022 - 10:53 AM EDT / 2022.08.12 1453 UTC
Wind: from the ENE (070 degrees) at 6 MPH (5 KT):0
Visibility: 7 mile(s):0
Sky conditions: clear
Temperature: 81.0 F (27.2 C)
Dew Point: 54.0 F (12.2 C)
Relative Humidity: 39%
Pressure (altimeter): 30.16 in. Hg (1021 hPa)
Pressure tendency: 0.02 inches (0.8 hPa) higher than three hours ago
ob: KMAF 121453Z 07005KT 7SM CLR 27/12 A3016 RMK AO2 SLP162 T02720122 51008
cycle: 15

Station Type Date Time Source
KMAF TAF 2022/08/12 12:22 UTC NOAA

TAF KMAF 121120Z 1212/1312 34008KT P6SM FEW250
FM121800 08012KT P6SM SCT120

Example: see airport list